68°F Temp
61°F Dewpoint
78% Humidity
Temperature
3 MPH
5 KM/H
3 KTS
140°
South East

Wind Speed
Partly Cloudy
Conditions
Pressure 1011.22 (hPa) - 29.86 (in)
Visibility 10.0 (mi) - 16.1 (km)

Current Conditions
KSJC
Location 9(mi)
Metar :KSJC 271253Z 14003KT 10SM FEW070 FEW180 20/16 A2986 RMK AO2 SLP112 FU FEW070 T02000156
Wed 27th May 04:53 am

Airport
  Metar Aviation API Data Provided by https://www.checkwx.com/ PHP scripts by weather34.com ©2020